sensor_id;sensor_type;location;lat;lon;timestamp;P1;durP1;ratioP1;P2;durP2;ratioP2
11187;SDS011;5650;52.700;7.306;2023-03-26T00:01:36;11.15;;;2.50;;
11187;SDS011;5650;52.700;7.306;2023-03-26T00:04:04;10.40;;;2.65;;
11187;SDS011;5650;52.700;7.306;2023-03-26T00:06:35;12.35;;;1.98;;
11187;SDS011;5650;52.700;7.306;2023-03-26T00:09:09;15.38;;;3.20;;
11187;SDS011;5650;52.700;7.306;2023-03-26T00:11:38;12.82;;;2.40;;
11187;SDS011;5650;52.700;7.306;2023-03-26T00:14:13;13.57;;;2.42;;
11187;SDS011;5650;52.700;7.306;2023-03-26T00:16:42;10.57;;;2.58;;
11187;SDS011;5650;52.700;7.306;2023-03-26T00:19:11;10.52;;;3.00;;
11187;SDS011;5650;52.700;7.306;2023-03-26T00:21:40;9.52;;;2.38;;
11187;SDS011;5650;52.700;7.306;2023-03-26T00:24:08;11.07;;;2.40;;
11187;SDS011;5650;52.700;7.306;2023-03-26T00:26:39;15.55;;;2.38;;
11187;SDS011;5650;52.700;7.306;2023-03-26T00:29:06;12.32;;;2.55;;
11187;SDS011;5650;52.700;7.306;2023-03-26T00:31:34;11.30;;;2.42;;
11187;SDS011;5650;52.700;7.306;2023-03-26T00:34:08;14.23;;;2.38;;
11187;SDS011;5650;52.700;7.306;2023-03-26T00:36:48;10.88;;;2.20;;
11187;SDS011;5650;52.700;7.306;2023-03-26T00:39:19;11.27;;;2.15;;
11187;SDS011;5650;52.700;7.306;2023-03-26T00:41:49;7.00;;;2.10;;
11187;SDS011;5650;52.700;7.306;2023-03-26T00:44:18;8.45;;;2.00;;
11187;SDS011;5650;52.700;7.306;2023-03-26T00:46:48;13.90;;;2.85;;
11187;SDS011;5650;52.700;7.306;2023-03-26T00:49:18;9.20;;;2.60;;
11187;SDS011;5650;52.700;7.306;2023-03-26T00:51:50;11.40;;;2.60;;
11187;SDS011;5650;52.700;7.306;2023-03-26T00:54:17;11.00;;;2.38;;
11187;SDS011;5650;52.700;7.306;2023-03-26T00:56:44;9.68;;;2.67;;
11187;SDS011;5650;52.700;7.306;2023-03-26T00:59:12;12.23;;;2.17;;
11187;SDS011;5650;52.700;7.306;2023-03-26T01:01:42;9.77;;;2.05;;
11187;SDS011;5650;52.700;7.306;2023-03-26T01:04:20;11.48;;;1.90;;
11187;SDS011;5650;52.700;7.306;2023-03-26T01:07:02;8.48;;;1.90;;
11187;SDS011;5650;52.700;7.306;2023-03-26T01:09:39;7.38;;;1.92;;
11187;SDS011;5650;52.700;7.306;2023-03-26T01:12:10;12.48;;;2.33;;
11187;SDS011;5650;52.700;7.306;2023-03-26T01:14:41;13.40;;;2.85;;
11187;SDS011;5650;52.700;7.306;2023-03-26T01:17:08;14.40;;;2.30;;
11187;SDS011;5650;52.700;7.306;2023-03-26T01:19:44;12.90;;;2.00;;
11187;SDS011;5650;52.700;7.306;2023-03-26T01:22:20;12.45;;;2.50;;
11187;SDS011;5650;52.700;7.306;2023-03-26T01:24:51;12.52;;;2.70;;
11187;SDS011;5650;52.700;7.306;2023-03-26T01:27:36;14.00;;;2.55;;
11187;SDS011;5650;52.700;7.306;2023-03-26T01:30:12;7.85;;;2.25;;
11187;SDS011;5650;52.700;7.306;2023-03-26T01:32:50;9.43;;;2.15;;
11187;SDS011;5650;52.700;7.306;2023-03-26T01:35:25;14.82;;;3.15;;
11187;SDS011;5650;52.700;7.306;2023-03-26T01:38:01;10.43;;;2.15;;
11187;SDS011;5650;52.700;7.306;2023-03-26T01:40:45;11.32;;;2.67;;
11187;SDS011;5650;52.700;7.306;2023-03-26T01:43:20;7.00;;;1.83;;
11187;SDS011;5650;52.700;7.306;2023-03-26T01:45:55;13.63;;;2.78;;
11187;SDS011;5650;52.700;7.306;2023-03-26T01:48:32;11.23;;;2.75;;
11187;SDS011;5650;52.700;7.306;2023-03-26T01:51:11;7.25;;;2.13;;
11187;SDS011;5650;52.700;7.306;2023-03-26T01:53:40;13.00;;;2.60;;
11187;SDS011;5650;52.700;7.306;2023-03-26T01:56:15;12.63;;;2.60;;
11187;SDS011;5650;52.700;7.306;2023-03-26T01:58:50;10.90;;;2.08;;
11187;SDS011;5650;52.700;7.306;2023-03-26T02:01:31;10.43;;;2.10;;
11187;SDS011;5650;52.700;7.306;2023-03-26T02:04:14;9.02;;;2.40;;
11187;SDS011;5650;52.700;7.306;2023-03-26T02:06:57;12.80;;;2.30;;
11187;SDS011;5650;52.700;7.306;2023-03-26T02:09:30;10.77;;;2.58;;
11187;SDS011;5650;52.700;7.306;2023-03-26T02:12:06;10.52;;;2.50;;
11187;SDS011;5650;52.700;7.306;2023-03-26T02:14:35;12.65;;;2.50;;
11187;SDS011;5650;52.700;7.306;2023-03-26T02:17:05;8.60;;;1.83;;
11187;SDS011;5650;52.700;7.306;2023-03-26T02:19:34;11.30;;;2.95;;
11187;SDS011;5650;52.700;7.306;2023-03-26T02:22:01;10.00;;;2.40;;
11187;SDS011;5650;52.700;7.306;2023-03-26T02:24:29;7.63;;;2.28;;
11187;SDS011;5650;52.700;7.306;2023-03-26T02:26:56;10.68;;;1.92;;
11187;SDS011;5650;52.700;7.306;2023-03-26T02:29:32;11.77;;;2.47;;
11187;SDS011;5650;52.700;7.306;2023-03-26T02:32:08;14.10;;;2.50;;
11187;SDS011;5650;52.700;7.306;2023-03-26T02:34:37;11.40;;;2.63;;
11187;SDS011;5650;52.700;7.306;2023-03-26T02:37:05;12.80;;;2.28;;
11187;SDS011;5650;52.700;7.306;2023-03-26T02:39:35;8.45;;;2.25;;
11187;SDS011;5650;52.700;7.306;2023-03-26T02:42:02;12.70;;;3.60;;
11187;SDS011;5650;52.700;7.306;2023-03-26T02:44:34;7.15;;;1.98;;
11187;SDS011;5650;52.700;7.306;2023-03-26T02:47:02;7.95;;;2.20;;
11187;SDS011;5650;52.700;7.306;2023-03-26T02:49:30;10.23;;;2.20;;
11187;SDS011;5650;52.700;7.306;2023-03-26T02:51:58;8.35;;;2.45;;
11187;SDS011;5650;52.700;7.306;2023-03-26T02:54:28;8.25;;;2.35;;
11187;SDS011;5650;52.700;7.306;2023-03-26T02:56:59;8.90;;;2.40;;
11187;SDS011;5650;52.700;7.306;2023-03-26T02:59:26;10.00;;;2.40;;
11187;SDS011;5650;52.700;7.306;2023-03-26T03:04:38;9.07;;;2.10;;
11187;SDS011;5650;52.700;7.306;2023-03-26T03:07:14;6.22;;;1.70;;
11187;SDS011;5650;52.700;7.306;2023-03-26T03:09:42;5.72;;;1.98;;
11187;SDS011;5650;52.700;7.306;2023-03-26T03:12:09;6.75;;;2.05;;
11187;SDS011;5650;52.700;7.306;2023-03-26T03:14:36;8.73;;;1.92;;
11187;SDS011;5650;52.700;7.306;2023-03-26T03:17:12;11.52;;;2.13;;
11187;SDS011;5650;52.700;7.306;2023-03-26T03:19:39;9.10;;;2.38;;
11187;SDS011;5650;52.700;7.306;2023-03-26T03:22:15;8.88;;;2.10;;
11187;SDS011;5650;52.700;7.306;2023-03-26T03:24:50;10.63;;;2.13;;
11187;SDS011;5650;52.700;7.306;2023-03-26T03:27:17;13.13;;;2.47;;
11187;SDS011;5650;52.700;7.306;2023-03-26T03:29:46;12.10;;;2.78;;
11187;SDS011;5650;52.700;7.306;2023-03-26T03:32:19;8.07;;;2.67;;
11187;SDS011;5650;52.700;7.306;2023-03-26T03:34:49;7.05;;;2.15;;
11187;SDS011;5650;52.700;7.306;2023-03-26T03:37:16;8.80;;;2.53;;
11187;SDS011;5650;52.700;7.306;2023-03-26T03:39:47;8.98;;;2.28;;
11187;SDS011;5650;52.700;7.306;2023-03-26T03:42:14;8.88;;;2.22;;
11187;SDS011;5650;52.700;7.306;2023-03-26T03:44:41;11.05;;;2.42;;
11187;SDS011;5650;52.700;7.306;2023-03-26T03:47:11;9.50;;;2.38;;
11187;SDS011;5650;52.700;7.306;2023-03-26T03:49:43;11.30;;;2.35;;
11187;SDS011;5650;52.700;7.306;2023-03-26T03:52:10;8.27;;;2.67;;
11187;SDS011;5650;52.700;7.306;2023-03-26T03:54:37;8.85;;;2.53;;
11187;SDS011;5650;52.700;7.306;2023-03-26T03:57:04;8.73;;;2.20;;
11187;SDS011;5650;52.700;7.306;2023-03-26T03:59:31;9.52;;;2.47;;
11187;SDS011;5650;52.700;7.306;2023-03-26T04:01:59;9.23;;;2.20;;
11187;SDS011;5650;52.700;7.306;2023-03-26T04:04:26;14.95;;;2.85;;
11187;SDS011;5650;52.700;7.306;2023-03-26T04:06:55;10.35;;;2.72;;
11187;SDS011;5650;52.700;7.306;2023-03-26T04:09:22;5.97;;;2.00;;
11187;SDS011;5650;52.700;7.306;2023-03-26T04:11:49;8.88;;;2.40;;
11187;SDS011;5650;52.700;7.306;2023-03-26T04:14:16;9.77;;;2.25;;
11187;SDS011;5650;52.700;7.306;2023-03-26T04:16:50;6.35;;;2.00;;
11187;SDS011;5650;52.700;7.306;2023-03-26T04:19:17;10.63;;;3.33;;
11187;SDS011;5650;52.700;7.306;2023-03-26T04:21:44;11.05;;;3.25;;
11187;SDS011;5650;52.700;7.306;2023-03-26T04:24:25;8.95;;;2.70;;
11187;SDS011;5650;52.700;7.306;2023-03-26T04:26:52;9.82;;;2.72;;
11187;SDS011;5650;52.700;7.306;2023-03-26T04:29:25;11.30;;;2.55;;
11187;SDS011;5650;52.700;7.306;2023-03-26T04:31:54;10.18;;;2.47;;
11187;SDS011;5650;52.700;7.306;2023-03-26T04:34:36;6.95;;;2.13;;
11187;SDS011;5650;52.700;7.306;2023-03-26T04:37:07;13.90;;;3.10;;
11187;SDS011;5650;52.700;7.306;2023-03-26T04:39:38;16.95;;;2.88;;
11187;SDS011;5650;52.700;7.306;2023-03-26T04:42:06;12.80;;;2.83;;
11187;SDS011;5650;52.700;7.306;2023-03-26T04:44:35;8.45;;;2.20;;
11187;SDS011;5650;52.700;7.306;2023-03-26T04:47:02;11.70;;;4.18;;
11187;SDS011;5650;52.700;7.306;2023-03-26T04:49:29;9.13;;;2.95;;
11187;SDS011;5650;52.700;7.306;2023-03-26T04:51:56;9.52;;;2.97;;
11187;SDS011;5650;52.700;7.306;2023-03-26T04:54:23;7.20;;;2.42;;
11187;SDS011;5650;52.700;7.306;2023-03-26T04:56:55;12.27;;;2.53;;
11187;SDS011;5650;52.700;7.306;2023-03-26T04:59:29;9.50;;;2.67;;
11187;SDS011;5650;52.700;7.306;2023-03-26T05:02:01;11.90;;;2.70;;
11187;SDS011;5650;52.700;7.306;2023-03-26T05:04:29;14.38;;;2.70;;
11187;SDS011;5650;52.700;7.306;2023-03-26T05:06:58;11.05;;;3.40;;
11187;SDS011;5650;52.700;7.306;2023-03-26T05:09:26;8.25;;;2.80;;
11187;SDS011;5650;52.700;7.306;2023-03-26T05:12:01;18.77;;;2.88;;
11187;SDS011;5650;52.700;7.306;2023-03-26T05:14:28;9.38;;;2.90;;
11187;SDS011;5650;52.700;7.306;2023-03-26T05:16:55;11.85;;;3.47;;
11187;SDS011;5650;52.700;7.306;2023-03-26T05:19:23;14.05;;;3.22;;
11187;SDS011;5650;52.700;7.306;2023-03-26T05:21:50;9.23;;;2.88;;
11187;SDS011;5650;52.700;7.306;2023-03-26T05:24:23;11.43;;;3.15;;
11187;SDS011;5650;52.700;7.306;2023-03-26T05:26:55;9.40;;;2.70;;
11187;SDS011;5650;52.700;7.306;2023-03-26T05:29:27;9.23;;;2.88;;
11187;SDS011;5650;52.700;7.306;2023-03-26T05:31:57;9.68;;;3.25;;
11187;SDS011;5650;52.700;7.306;2023-03-26T05:34:26;8.57;;;2.75;;
11187;SDS011;5650;52.700;7.306;2023-03-26T05:36:54;11.25;;;3.05;;
11187;SDS011;5650;52.700;7.306;2023-03-26T05:39:21;7.88;;;2.63;;
11187;SDS011;5650;52.700;7.306;2023-03-26T05:41:56;14.88;;;3.20;;
11187;SDS011;5650;52.700;7.306;2023-03-26T05:44:24;8.55;;;2.75;;
11187;SDS011;5650;52.700;7.306;2023-03-26T05:46:58;12.02;;;3.33;;
11187;SDS011;5650;52.700;7.306;2023-03-26T05:49:28;8.80;;;3.28;;
11187;SDS011;5650;52.700;7.306;2023-03-26T05:51:58;12.30;;;3.70;;
11187;SDS011;5650;52.700;7.306;2023-03-26T05:54:28;11.27;;;3.25;;
11187;SDS011;5650;52.700;7.306;2023-03-26T05:56:58;8.65;;;3.10;;
11187;SDS011;5650;52.700;7.306;2023-03-26T05:59:25;8.48;;;3.30;;
11187;SDS011;5650;52.700;7.306;2023-03-26T06:01:57;10.98;;;3.90;;
11187;SDS011;5650;52.700;7.306;2023-03-26T06:04:25;15.25;;;3.60;;
11187;SDS011;5650;52.700;7.306;2023-03-26T06:06:53;12.43;;;3.50;;
11187;SDS011;5650;52.700;7.306;2023-03-26T06:09:30;9.82;;;3.20;;
11187;SDS011;5650;52.700;7.306;2023-03-26T06:11:57;12.60;;;3.58;;
11187;SDS011;5650;52.700;7.306;2023-03-26T06:14:28;9.13;;;3.28;;
11187;SDS011;5650;52.700;7.306;2023-03-26T06:16:57;10.70;;;3.47;;
11187;SDS011;5650;52.700;7.306;2023-03-26T06:19:24;7.30;;;3.45;;
11187;SDS011;5650;52.700;7.306;2023-03-26T06:21:51;8.35;;;3.25;;
11187;SDS011;5650;52.700;7.306;2023-03-26T06:24:18;10.23;;;3.63;;
11187;SDS011;5650;52.700;7.306;2023-03-26T06:26:46;10.25;;;3.60;;
11187;SDS011;5650;52.700;7.306;2023-03-26T06:29:14;9.40;;;3.72;;
11187;SDS011;5650;52.700;7.306;2023-03-26T06:31:44;10.07;;;3.13;;
11187;SDS011;5650;52.700;7.306;2023-03-26T06:34:13;12.05;;;3.63;;
11187;SDS011;5650;52.700;7.306;2023-03-26T06:36:43;10.93;;;3.78;;
11187;SDS011;5650;52.700;7.306;2023-03-26T06:39:12;10.23;;;3.38;;
11187;SDS011;5650;52.700;7.306;2023-03-26T06:41:40;13.95;;;3.85;;
11187;SDS011;5650;52.700;7.306;2023-03-26T06:44:07;10.75;;;3.50;;
11187;SDS011;5650;52.700;7.306;2023-03-26T06:46:37;13.43;;;2.88;;
11187;SDS011;5650;52.700;7.306;2023-03-26T06:49:04;8.20;;;2.67;;
11187;SDS011;5650;52.700;7.306;2023-03-26T06:51:35;10.88;;;3.78;;
11187;SDS011;5650;52.700;7.306;2023-03-26T06:54:13;8.38;;;3.58;;
11187;SDS011;5650;52.700;7.306;2023-03-26T06:56:43;12.77;;;3.88;;
11187;SDS011;5650;52.700;7.306;2023-03-26T06:59:13;9.57;;;3.30;;
11187;SDS011;5650;52.700;7.306;2023-03-26T07:01:40;12.85;;;3.70;;
11187;SDS011;5650;52.700;7.306;2023-03-26T07:04:26;13.32;;;5.30;;
11187;SDS011;5650;52.700;7.306;2023-03-26T07:06:55;12.27;;;4.90;;
11187;SDS011;5650;52.700;7.306;2023-03-26T07:09:22;9.15;;;3.70;;
11187;SDS011;5650;52.700;7.306;2023-03-26T07:12:00;11.18;;;3.55;;
11187;SDS011;5650;52.700;7.306;2023-03-26T07:14:27;10.85;;;3.22;;
11187;SDS011;5650;52.700;7.306;2023-03-26T07:16:58;10.07;;;2.45;;
11187;SDS011;5650;52.700;7.306;2023-03-26T07:19:25;14.13;;;3.33;;
11187;SDS011;5650;52.700;7.306;2023-03-26T07:21:52;14.90;;;3.22;;
11187;SDS011;5650;52.700;7.306;2023-03-26T07:24:22;12.43;;;3.40;;
11187;SDS011;5650;52.700;7.306;2023-03-26T07:26:51;12.68;;;3.83;;
11187;SDS011;5650;52.700;7.306;2023-03-26T07:29:29;11.93;;;3.95;;
11187;SDS011;5650;52.700;7.306;2023-03-26T07:32:02;13.32;;;3.33;;
11187;SDS011;5650;52.700;7.306;2023-03-26T07:34:37;11.77;;;3.90;;
11187;SDS011;5650;52.700;7.306;2023-03-26T07:37:14;8.90;;;2.83;;
11187;SDS011;5650;52.700;7.306;2023-03-26T07:39:55;15.98;;;3.63;;
11187;SDS011;5650;52.700;7.306;2023-03-26T07:42:30;13.70;;;3.55;;
11187;SDS011;5650;52.700;7.306;2023-03-26T07:45:09;19.30;;;3.70;;
11187;SDS011;5650;52.700;7.306;2023-03-26T07:47:44;15.45;;;3.55;;
11187;SDS011;5650;52.700;7.306;2023-03-26T07:50:18;15.48;;;4.10;;
11187;SDS011;5650;52.700;7.306;2023-03-26T07:52:49;18.00;;;3.95;;
11187;SDS011;5650;52.700;7.306;2023-03-26T07:55:20;18.95;;;3.15;;
11187;SDS011;5650;52.700;7.306;2023-03-26T07:57:52;16.10;;;3.50;;
11187;SDS011;5650;52.700;7.306;2023-03-26T08:00:27;21.05;;;4.35;;
11187;SDS011;5650;52.700;7.306;2023-03-26T08:03:19;24.65;;;4.35;;
11187;SDS011;5650;52.700;7.306;2023-03-26T08:05:59;19.17;;;3.30;;
11187;SDS011;5650;52.700;7.306;2023-03-26T08:08:34;23.13;;;4.13;;
11187;SDS011;5650;52.700;7.306;2023-03-26T08:11:13;21.92;;;3.55;;
11187;SDS011;5650;52.700;7.306;2023-03-26T08:13:57;21.48;;;3.75;;
11187;SDS011;5650;52.700;7.306;2023-03-26T08:16:32;17.98;;;3.65;;
11187;SDS011;5650;52.700;7.306;2023-03-26T08:19:04;18.25;;;3.90;;
11187;SDS011;5650;52.700;7.306;2023-03-26T08:21:42;17.58;;;4.38;;
11187;SDS011;5650;52.700;7.306;2023-03-26T08:24:17;20.67;;;3.95;;
11187;SDS011;5650;52.700;7.306;2023-03-26T08:26:50;22.25;;;4.55;;
11187;SDS011;5650;52.700;7.306;2023-03-26T08:29:25;18.15;;;3.63;;
11187;SDS011;5650;52.700;7.306;2023-03-26T08:31:59;17.65;;;3.40;;
11187;SDS011;5650;52.700;7.306;2023-03-26T08:34:29;26.33;;;3.92;;
11187;SDS011;5650;52.700;7.306;2023-03-26T08:36:57;17.52;;;3.70;;
11187;SDS011;5650;52.700;7.306;2023-03-26T08:39:26;23.65;;;4.28;;
11187;SDS011;5650;52.700;7.306;2023-03-26T08:51:26;19.88;;;3.83;;
11187;SDS011;5650;52.700;7.306;2023-03-26T08:57:28;18.48;;;3.58;;
11187;SDS011;5650;52.700;7.306;2023-03-26T09:03:19;22.98;;;3.80;;
11187;SDS011;5650;52.700;7.306;2023-03-26T09:06:24;21.55;;;3.72;;
11187;SDS011;5650;52.700;7.306;2023-03-26T09:09:19;21.40;;;3.92;;
11187;SDS011;5650;52.700;7.306;2023-03-26T09:21:49;25.92;;;4.43;;
11187;SDS011;5650;52.700;7.306;2023-03-26T09:28:01;25.23;;;4.68;;
11187;SDS011;5650;52.700;7.306;2023-03-26T09:31:14;18.33;;;4.18;;
11187;SDS011;5650;52.700;7.306;2023-03-26T09:34:28;18.65;;;4.68;;
11187;SDS011;5650;52.700;7.306;2023-03-26T09:40:13;18.55;;;4.00;;
11187;SDS011;5650;52.700;7.306;2023-03-26T09:42:43;24.40;;;3.83;;
11187;SDS011;5650;52.700;7.306;2023-03-26T09:45:37;19.35;;;3.45;;
11187;SDS011;5650;52.700;7.306;2023-03-26T09:48:32;27.02;;;4.25;;
11187;SDS011;5650;52.700;7.306;2023-03-26T09:51:33;19.48;;;4.88;;
11187;SDS011;5650;52.700;7.306;2023-03-26T09:54:40;16.15;;;3.40;;
11187;SDS011;5650;52.700;7.306;2023-03-26T09:57:35;22.45;;;3.25;;
11187;SDS011;5650;52.700;7.306;2023-03-26T10:00:24;18.40;;;3.85;;
11187;SDS011;5650;52.700;7.306;2023-03-26T10:03:18;15.93;;;3.92;;
11187;SDS011;5650;52.700;7.306;2023-03-26T10:06:01;14.45;;;3.88;;
11187;SDS011;5650;52.700;7.306;2023-03-26T10:08:55;18.88;;;3.97;;
11187;SDS011;5650;52.700;7.306;2023-03-26T10:12:00;14.98;;;2.92;;
11187;SDS011;5650;52.700;7.306;2023-03-26T10:14:41;18.88;;;3.35;;
11187;SDS011;5650;52.700;7.306;2023-03-26T10:17:25;19.42;;;3.30;;
11187;SDS011;5650;52.700;7.306;2023-03-26T10:20:14;18.67;;;3.55;;
11187;SDS011;5650;52.700;7.306;2023-03-26T10:29:23;21.00;;;4.47;;
11187;SDS011;5650;52.700;7.306;2023-03-26T10:32:16;20.13;;;3.50;;
11187;SDS011;5650;52.700;7.306;2023-03-26T10:34:57;19.95;;;3.70;;
11187;SDS011;5650;52.700;7.306;2023-03-26T10:37:39;22.75;;;3.85;;
11187;SDS011;5650;52.700;7.306;2023-03-26T10:40:21;18.73;;;3.67;;
11187;SDS011;5650;52.700;7.306;2023-03-26T10:43:03;28.80;;;4.60;;
11187;SDS011;5650;52.700;7.306;2023-03-26T10:52:32;17.58;;;3.50;;
11187;SDS011;5650;52.700;7.306;2023-03-26T10:55:07;18.38;;;4.05;;
11187;SDS011;5650;52.700;7.306;2023-03-26T10:57:42;18.85;;;4.57;;
11187;SDS011;5650;52.700;7.306;2023-03-26T11:00:17;14.82;;;3.97;;
11187;SDS011;5650;52.700;7.306;2023-03-26T11:05:43;18.45;;;3.38;;
11187;SDS011;5650;52.700;7.306;2023-03-26T11:08:18;17.25;;;3.15;;
11187;SDS011;5650;52.700;7.306;2023-03-26T11:10:54;11.30;;;2.40;;
11187;SDS011;5650;52.700;7.306;2023-03-26T11:13:32;18.05;;;3.10;;
11187;SDS011;5650;52.700;7.306;2023-03-26T11:16:10;22.80;;;3.95;;
11187;SDS011;5650;52.700;7.306;2023-03-26T11:18:45;18.40;;;4.07;;
11187;SDS011;5650;52.700;7.306;2023-03-26T11:21:25;13.50;;;3.88;;
11187;SDS011;5650;52.700;7.306;2023-03-26T11:24:10;11.75;;;3.70;;
11187;SDS011;5650;52.700;7.306;2023-03-26T11:27:09;16.30;;;2.97;;
11187;SDS011;5650;52.700;7.306;2023-03-26T11:29:45;15.57;;;3.10;;
11187;SDS011;5650;52.700;7.306;2023-03-26T11:32:21;17.50;;;3.83;;
11187;SDS011;5650;52.700;7.306;2023-03-26T11:34:54;14.70;;;2.83;;
11187;SDS011;5650;52.700;7.306;2023-03-26T11:37:32;18.17;;;3.80;;
11187;SDS011;5650;52.700;7.306;2023-03-26T11:40:12;21.13;;;3.72;;
11187;SDS011;5650;52.700;7.306;2023-03-26T11:42:47;15.82;;;3.30;;
11187;SDS011;5650;52.700;7.306;2023-03-26T11:45:22;10.82;;;3.20;;
11187;SDS011;5650;52.700;7.306;2023-03-26T11:47:54;13.45;;;3.50;;
11187;SDS011;5650;52.700;7.306;2023-03-26T11:50:31;12.95;;;3.05;;
11187;SDS011;5650;52.700;7.306;2023-03-26T11:53:09;14.13;;;2.97;;
11187;SDS011;5650;52.700;7.306;2023-03-26T11:55:57;20.60;;;3.88;;
11187;SDS011;5650;52.700;7.306;2023-03-26T11:58:31;13.68;;;3.08;;
11187;SDS011;5650;52.700;7.306;2023-03-26T12:01:03;17.83;;;3.35;;
11187;SDS011;5650;52.700;7.306;2023-03-26T12:03:38;9.15;;;3.40;;
11187;SDS011;5650;52.700;7.306;2023-03-26T12:06:21;14.35;;;3.03;;
11187;SDS011;5650;52.700;7.306;2023-03-26T12:08:49;21.20;;;4.40;;
11187;SDS011;5650;52.700;7.306;2023-03-26T12:11:21;11.05;;;3.33;;
11187;SDS011;5650;52.700;7.306;2023-03-26T12:13:57;13.32;;;2.55;;
11187;SDS011;5650;52.700;7.306;2023-03-26T12:16:26;9.38;;;2.85;;
11187;SDS011;5650;52.700;7.306;2023-03-26T12:18:57;13.95;;;2.83;;
11187;SDS011;5650;52.700;7.306;2023-03-26T12:21:26;11.82;;;2.75;;
11187;SDS011;5650;52.700;7.306;2023-03-26T12:23:57;10.82;;;2.70;;
11187;SDS011;5650;52.700;7.306;2023-03-26T12:26:33;14.82;;;2.97;;
11187;SDS011;5650;52.700;7.306;2023-03-26T12:29:12;17.45;;;3.15;;
11187;SDS011;5650;52.700;7.306;2023-03-26T12:31:47;11.98;;;3.00;;
11187;SDS011;5650;52.700;7.306;2023-03-26T12:34:22;14.75;;;3.08;;
11187;SDS011;5650;52.700;7.306;2023-03-26T12:36:58;13.27;;;3.22;;
11187;SDS011;5650;52.700;7.306;2023-03-26T12:39:30;16.67;;;3.33;;
11187;SDS011;5650;52.700;7.306;2023-03-26T12:42:00;14.57;;;3.00;;
11187;SDS011;5650;52.700;7.306;2023-03-26T12:44:32;15.27;;;3.20;;
11187;SDS011;5650;52.700;7.306;2023-03-26T12:47:13;14.90;;;3.22;;
11187;SDS011;5650;52.700;7.306;2023-03-26T12:49:43;20.10;;;3.47;;
11187;SDS011;5650;52.700;7.306;2023-03-26T12:52:19;14.55;;;3.42;;
11187;SDS011;5650;52.700;7.306;2023-03-26T12:55:11;14.25;;;3.17;;
11187;SDS011;5650;52.700;7.306;2023-03-26T12:57:51;12.57;;;2.63;;
11187;SDS011;5650;52.700;7.306;2023-03-26T13:00:30;15.38;;;3.42;;
11187;SDS011;5650;52.700;7.306;2023-03-26T13:03:26;17.77;;;3.13;;
11187;SDS011;5650;52.700;7.306;2023-03-26T13:09:27;18.83;;;5.70;;
11187;SDS011;5650;52.700;7.306;2023-03-26T13:12:12;10.98;;;2.58;;
11187;SDS011;5650;52.700;7.306;2023-03-26T13:18:06;12.00;;;2.60;;
11187;SDS011;5650;52.700;7.306;2023-03-26T13:20:53;13.55;;;2.63;;
11187;SDS011;5650;52.700;7.306;2023-03-26T13:23:29;12.23;;;2.75;;
11187;SDS011;5650;52.700;7.306;2023-03-26T13:26:08;9.25;;;2.42;;
11187;SDS011;5650;52.700;7.306;2023-03-26T13:28:43;9.10;;;2.88;;
11187;SDS011;5650;52.700;7.306;2023-03-26T13:31:23;18.13;;;3.15;;
11187;SDS011;5650;52.700;7.306;2023-03-26T13:33:56;14.25;;;3.10;;
11187;SDS011;5650;52.700;7.306;2023-03-26T13:36:31;12.38;;;3.35;;
11187;SDS011;5650;52.700;7.306;2023-03-26T13:42:01;21.17;;;3.30;;
11187;SDS011;5650;52.700;7.306;2023-03-26T13:44:42;13.02;;;2.70;;
11187;SDS011;5650;52.700;7.306;2023-03-26T13:47:21;16.52;;;3.35;;
11187;SDS011;5650;52.700;7.306;2023-03-26T13:49:55;12.40;;;2.55;;
11187;SDS011;5650;52.700;7.306;2023-03-26T13:52:27;10.60;;;2.78;;
11187;SDS011;5650;52.700;7.306;2023-03-26T13:55:15;14.27;;;3.20;;
11187;SDS011;5650;52.700;7.306;2023-03-26T13:57:48;14.32;;;2.92;;
11187;SDS011;5650;52.700;7.306;2023-03-26T14:00:21;14.00;;;3.30;;
11187;SDS011;5650;52.700;7.306;2023-03-26T14:02:54;17.05;;;3.25;;
11187;SDS011;5650;52.700;7.306;2023-03-26T14:05:27;15.52;;;3.60;;
11187;SDS011;5650;52.700;7.306;2023-03-26T14:08:00;15.60;;;3.95;;
11187;SDS011;5650;52.700;7.306;2023-03-26T14:10:32;13.98;;;3.22;;
11187;SDS011;5650;52.700;7.306;2023-03-26T14:13:14;16.02;;;3.28;;
11187;SDS011;5650;52.700;7.306;2023-03-26T14:15:47;16.08;;;3.28;;
11187;SDS011;5650;52.700;7.306;2023-03-26T14:18:23;14.95;;;3.55;;
11187;SDS011;5650;52.700;7.306;2023-03-26T14:21:18;15.20;;;2.72;;
11187;SDS011;5650;52.700;7.306;2023-03-26T14:26:56;13.13;;;2.88;;
11187;SDS011;5650;52.700;7.306;2023-03-26T14:32:42;17.50;;;3.15;;
11187;SDS011;5650;52.700;7.306;2023-03-26T14:35:31;12.85;;;3.30;;
11187;SDS011;5650;52.700;7.306;2023-03-26T14:38:13;12.95;;;3.55;;
11187;SDS011;5650;52.700;7.306;2023-03-26T14:41:09;23.05;;;3.97;;
11187;SDS011;5650;52.700;7.306;2023-03-26T14:46:57;12.25;;;3.42;;
11187;SDS011;5650;52.700;7.306;2023-03-26T14:49:51;16.50;;;3.03;;
11187;SDS011;5650;52.700;7.306;2023-03-26T14:52:55;14.95;;;3.45;;
11187;SDS011;5650;52.700;7.306;2023-03-26T14:58:51;13.10;;;4.30;;
11187;SDS011;5650;52.700;7.306;2023-03-26T15:08:19;15.20;;;3.78;;
11187;SDS011;5650;52.700;7.306;2023-03-26T15:11:25;12.98;;;3.95;;
11187;SDS011;5650;52.700;7.306;2023-03-26T15:14:11;15.73;;;3.40;;
11187;SDS011;5650;52.700;7.306;2023-03-26T15:26:37;12.63;;;3.30;;
11187;SDS011;5650;52.700;7.306;2023-03-26T15:29:47;16.85;;;3.40;;
11187;SDS011;5650;52.700;7.306;2023-03-26T15:33:09;9.38;;;2.45;;
11187;SDS011;5650;52.700;7.306;2023-03-26T15:36:07;15.32;;;2.45;;
11187;SDS011;5650;52.700;7.306;2023-03-26T15:42:07;19.13;;;3.60;;
11187;SDS011;5650;52.700;7.306;2023-03-26T15:44:47;15.88;;;2.75;;
11187;SDS011;5650;52.700;7.306;2023-03-26T15:47:30;12.80;;;3.13;;
11187;SDS011;5650;52.700;7.306;2023-03-26T15:50:18;14.50;;;2.83;;
11187;SDS011;5650;52.700;7.306;2023-03-26T15:53:12;11.57;;;2.40;;
11187;SDS011;5650;52.700;7.306;2023-03-26T15:56:11;8.20;;;2.42;;
11187;SDS011;5650;52.700;7.306;2023-03-26T15:59:12;10.23;;;2.50;;
11187;SDS011;5650;52.700;7.306;2023-03-26T16:01:56;8.85;;;2.22;;
11187;SDS011;5650;52.700;7.306;2023-03-26T16:04:35;10.23;;;2.25;;
11187;SDS011;5650;52.700;7.306;2023-03-26T16:07:22;9.63;;;2.35;;
11187;SDS011;5650;52.700;7.306;2023-03-26T16:10:24;9.40;;;2.03;;
11187;SDS011;5650;52.700;7.306;2023-03-26T16:15:49;14.98;;;3.03;;
11187;SDS011;5650;52.700;7.306;2023-03-26T16:18:32;18.75;;;2.60;;
11187;SDS011;5650;52.700;7.306;2023-03-26T16:24:21;14.63;;;2.75;;
11187;SDS011;5650;52.700;7.306;2023-03-26T16:26:53;12.68;;;2.42;;
11187;SDS011;5650;52.700;7.306;2023-03-26T16:32:40;16.80;;;3.28;;
11187;SDS011;5650;52.700;7.306;2023-03-26T16:38:23;12.13;;;2.92;;
11187;SDS011;5650;52.700;7.306;2023-03-26T16:41:03;18.23;;;3.63;;
11187;SDS011;5650;52.700;7.306;2023-03-26T16:46:42;12.90;;;2.95;;
11187;SDS011;5650;52.700;7.306;2023-03-26T16:49:24;18.75;;;3.78;;
11187;SDS011;5650;52.700;7.306;2023-03-26T16:52:06;13.13;;;2.60;;
11187;SDS011;5650;52.700;7.306;2023-03-26T16:55:04;16.17;;;3.17;;
11187;SDS011;5650;52.700;7.306;2023-03-26T16:57:40;18.30;;;3.90;;
11187;SDS011;5650;52.700;7.306;2023-03-26T17:03:29;18.88;;;3.70;;
11187;SDS011;5650;52.700;7.306;2023-03-26T17:06:05;11.25;;;2.95;;
11187;SDS011;5650;52.700;7.306;2023-03-26T17:08:53;15.35;;;3.70;;
11187;SDS011;5650;52.700;7.306;2023-03-26T17:11:43;13.02;;;2.75;;
11187;SDS011;5650;52.700;7.306;2023-03-26T17:14:29;17.55;;;3.15;;
11187;SDS011;5650;52.700;7.306;2023-03-26T17:17:07;12.00;;;3.08;;
11187;SDS011;5650;52.700;7.306;2023-03-26T17:19:49;9.95;;;3.05;;
11187;SDS011;5650;52.700;7.306;2023-03-26T17:22:28;12.95;;;3.15;;
11187;SDS011;5650;52.700;7.306;2023-03-26T17:25:01;22.40;;;3.95;;
11187;SDS011;5650;52.700;7.306;2023-03-26T17:27:55;11.75;;;3.08;;
11187;SDS011;5650;52.700;7.306;2023-03-26T17:30:40;14.45;;;2.63;;
11187;SDS011;5650;52.700;7.306;2023-03-26T17:33:21;15.65;;;3.10;;
11187;SDS011;5650;52.700;7.306;2023-03-26T17:45:31;15.85;;;2.90;;